sensor_id;sensor_type;location;lat;lon;timestamp;pressure;altitude;pressure_sealevel;temperature;humidity
29909;BME280;36247;51.952;6.146;2023-03-22T00:00:03;100839.00;;;9.58;100.00
29909;BME280;36247;51.952;6.146;2023-03-22T00:02:30;100841.44;;;9.47;100.00
29909;BME280;36247;51.952;6.146;2023-03-22T00:04:57;100822.16;;;9.53;100.00
29909;BME280;36247;51.952;6.146;2023-03-22T00:07:22;100836.16;;;9.47;100.00
29909;BME280;36247;51.952;6.146;2023-03-22T00:09:48;100837.03;;;9.48;100.00
29909;BME280;36247;51.952;6.146;2023-03-22T00:12:13;100831.72;;;9.46;100.00
29909;BME280;36247;51.952;6.146;2023-03-22T00:14:38;100831.41;;;9.28;100.00
29909;BME280;36247;51.952;6.146;2023-03-22T00:17:05;100840.16;;;9.25;100.00
29909;BME280;36247;51.952;6.146;2023-03-22T00:19:30;100829.47;;;9.19;100.00
29909;BME280;36247;51.952;6.146;2023-03-22T00:21:58;100838.22;;;9.16;100.00
29909;BME280;36247;51.952;6.146;2023-03-22T00:24:25;100830.22;;;9.13;100.00
29909;BME280;36247;51.952;6.146;2023-03-22T00:26:50;100828.25;;;9.03;100.00
29909;BME280;36247;51.952;6.146;2023-03-22T00:29:16;100829.78;;;8.90;100.00
29909;BME280;36247;51.952;6.146;2023-03-22T00:31:41;100823.63;;;8.90;100.00
29909;BME280;36247;51.952;6.146;2023-03-22T00:34:07;100827.19;;;8.93;100.00
29909;BME280;36247;51.952;6.146;2023-03-22T00:36:32;100816.66;;;8.95;100.00
29909;BME280;36247;51.952;6.146;2023-03-22T00:38:58;100814.97;;;8.98;100.00
29909;BME280;36247;51.952;6.146;2023-03-22T00:41:23;100821.03;;;8.93;100.00
29909;BME280;36247;51.952;6.146;2023-03-22T00:43:50;100819.28;;;8.93;100.00
29909;BME280;36247;51.952;6.146;2023-03-22T00:46:18;100814.84;;;8.92;100.00
29909;BME280;36247;51.952;6.146;2023-03-22T00:48:44;100815.59;;;8.87;100.00
29909;BME280;36247;51.952;6.146;2023-03-22T00:51:10;100799.88;;;8.91;100.00
29909;BME280;36247;51.952;6.146;2023-03-22T00:53:37;100801.56;;;8.89;100.00
29909;BME280;36247;51.952;6.146;2023-03-22T00:56:04;100804.28;;;8.92;100.00
29909;BME280;36247;51.952;6.146;2023-03-22T00:58:37;100798.94;;;8.89;100.00
29909;BME280;36247;51.952;6.146;2023-03-22T01:01:02;100804.38;;;8.98;100.00
29909;BME280;36247;51.952;6.146;2023-03-22T01:03:28;100783.19;;;8.95;100.00
29909;BME280;36247;51.952;6.146;2023-03-22T01:05:53;100778.78;;;8.94;100.00
29909;BME280;36247;51.952;6.146;2023-03-22T01:08:23;100788.38;;;8.91;100.00
29909;BME280;36247;51.952;6.146;2023-03-22T01:10:48;100780.47;;;8.91;100.00
29909;BME280;36247;51.952;6.146;2023-03-22T01:13:14;100778.56;;;8.83;100.00
29909;BME280;36247;51.952;6.146;2023-03-22T01:15:40;100777.69;;;8.83;100.00
29909;BME280;36247;51.952;6.146;2023-03-22T01:18:07;100778.44;;;8.77;100.00
29909;BME280;36247;51.952;6.146;2023-03-22T01:20:34;100774.91;;;8.77;100.00
29909;BME280;36247;51.952;6.146;2023-03-22T01:22:59;100778.28;;;8.70;100.00
29909;BME280;36247;51.952;6.146;2023-03-22T01:25:26;100772.09;;;8.68;100.00
29909;BME280;36247;51.952;6.146;2023-03-22T01:27:51;100761.66;;;8.74;100.00
29909;BME280;36247;51.952;6.146;2023-03-22T01:30:18;100758.22;;;8.78;100.00
29909;BME280;36247;51.952;6.146;2023-03-22T01:32:43;100754.63;;;8.76;100.00
29909;BME280;36247;51.952;6.146;2023-03-22T01:35:09;100752.00;;;8.76;100.00
29909;BME280;36247;51.952;6.146;2023-03-22T01:37:36;100747.63;;;8.76;100.00
29909;BME280;36247;51.952;6.146;2023-03-22T01:40:01;100745.78;;;8.72;100.00
29909;BME280;36247;51.952;6.146;2023-03-22T01:42:28;100733.34;;;8.68;100.00
29909;BME280;36247;51.952;6.146;2023-03-22T01:45:16;100726.19;;;8.62;100.00
29909;BME280;36247;51.952;6.146;2023-03-22T01:47:58;100728.91;;;8.65;100.00
29909;BME280;36247;51.952;6.146;2023-03-22T01:50:27;100717.44;;;8.63;100.00
29909;BME280;36247;51.952;6.146;2023-03-22T01:52:55;100715.72;;;8.67;100.00
29909;BME280;36247;51.952;6.146;2023-03-22T01:55:26;100709.44;;;8.60;100.00
29909;BME280;36247;51.952;6.146;2023-03-22T01:58:14;100710.31;;;8.61;100.00
29909;BME280;36247;51.952;6.146;2023-03-22T02:00:49;100699.78;;;8.62;100.00
29909;BME280;36247;51.952;6.146;2023-03-22T02:03:49;100697.22;;;8.65;100.00
29909;BME280;36247;51.952;6.146;2023-03-22T02:06:18;100684.81;;;8.60;100.00
29909;BME280;36247;51.952;6.146;2023-03-22T02:08:48;100678.63;;;8.61;100.00
29909;BME280;36247;51.952;6.146;2023-03-22T02:11:27;100678.69;;;8.64;100.00
29909;BME280;36247;51.952;6.146;2023-03-22T02:14:20;100677.78;;;8.62;100.00
29909;BME280;36247;51.952;6.146;2023-03-22T02:28:35;100647.69;;;9.03;100.00
29909;BME280;36247;51.952;6.146;2023-03-22T02:34:02;100647.03;;;9.16;100.00
29909;BME280;36247;51.952;6.146;2023-03-22T02:39:56;100635.69;;;9.23;100.00
29909;BME280;36247;51.952;6.146;2023-03-22T02:45:28;100634.97;;;9.32;100.00
29909;BME280;36247;51.952;6.146;2023-03-22T02:48:13;100641.09;;;9.29;100.00
29909;BME280;36247;51.952;6.146;2023-03-22T02:50:42;100634.84;;;9.24;100.00
29909;BME280;36247;51.952;6.146;2023-03-22T02:55:51;100626.09;;;9.30;100.00
29909;BME280;36247;51.952;6.146;2023-03-22T02:58:29;100633.16;;;9.29;100.00
29909;BME280;36247;51.952;6.146;2023-03-22T03:01:06;100616.44;;;9.30;100.00
29909;BME280;36247;51.952;6.146;2023-03-22T03:03:33;100611.97;;;9.26;100.00
29909;BME280;36247;51.952;6.146;2023-03-22T03:06:11;100613.78;;;9.30;100.00
29909;BME280;36247;51.952;6.146;2023-03-22T03:08:38;100612.13;;;9.39;100.00
29909;BME280;36247;51.952;6.146;2023-03-22T03:11:05;100607.88;;;9.48;100.00
29909;BME280;36247;51.952;6.146;2023-03-22T03:13:31;100602.66;;;9.53;100.00
29909;BME280;36247;51.952;6.146;2023-03-22T03:15:58;100600.13;;;9.62;100.00
29909;BME280;36247;51.952;6.146;2023-03-22T03:26:50;100594.06;;;9.69;100.00
29909;BME280;36247;51.952;6.146;2023-03-22T03:29:23;100599.38;;;9.71;100.00
29909;BME280;36247;51.952;6.146;2023-03-22T03:31:53;100589.72;;;9.75;100.00
29909;BME280;36247;51.952;6.146;2023-03-22T03:34:25;100589.72;;;9.76;100.00
29909;BME280;36247;51.952;6.146;2023-03-22T03:37:08;100585.34;;;9.77;100.00
29909;BME280;36247;51.952;6.146;2023-03-22T03:39:38;100598.47;;;9.67;100.00
29909;BME280;36247;51.952;6.146;2023-03-22T03:42:07;100599.44;;;9.76;100.00
29909;BME280;36247;51.952;6.146;2023-03-22T03:44:37;100588.75;;;9.68;100.00
29909;BME280;36247;51.952;6.146;2023-03-22T03:47:04;100595.91;;;9.74;100.00
29909;BME280;36247;51.952;6.146;2023-03-22T03:49:31;100586.13;;;9.69;100.00
29909;BME280;36247;51.952;6.146;2023-03-22T03:51:58;100594.91;;;9.67;100.00
29909;BME280;36247;51.952;6.146;2023-03-22T03:54:24;100587.91;;;9.70;100.00
29909;BME280;36247;51.952;6.146;2023-03-22T03:56:49;100586.16;;;9.73;100.00
29909;BME280;36247;51.952;6.146;2023-03-22T03:59:16;100579.16;;;9.76;100.00
29909;BME280;36247;51.952;6.146;2023-03-22T04:01:43;100586.25;;;9.79;100.00
29909;BME280;36247;51.952;6.146;2023-03-22T04:04:27;100589.69;;;9.71;100.00
29909;BME280;36247;51.952;6.146;2023-03-22T04:06:59;100588.91;;;9.80;100.00
29909;BME280;36247;51.952;6.146;2023-03-22T04:09:32;100588.03;;;9.80;100.00
29909;BME280;36247;51.952;6.146;2023-03-22T04:12:19;100583.59;;;9.77;100.00
29909;BME280;36247;51.952;6.146;2023-03-22T04:15:05;100577.41;;;9.77;100.00
29909;BME280;36247;51.952;6.146;2023-03-22T04:17:31;100577.41;;;9.77;100.00
29909;BME280;36247;51.952;6.146;2023-03-22T04:19:57;100582.66;;;9.74;100.00
29909;BME280;36247;51.952;6.146;2023-03-22T04:22:23;100597.66;;;9.75;100.00
29909;BME280;36247;51.952;6.146;2023-03-22T04:24:49;100587.84;;;9.64;100.00
29909;BME280;36247;51.952;6.146;2023-03-22T04:27:17;100589.59;;;9.65;100.00
29909;BME280;36247;51.952;6.146;2023-03-22T04:29:51;100579.03;;;9.65;100.00
29909;BME280;36247;51.952;6.146;2023-03-22T04:32:48;100570.16;;;9.60;100.00
29909;BME280;36247;51.952;6.146;2023-03-22T04:35:16;100572.78;;;9.60;100.00
29909;BME280;36247;51.952;6.146;2023-03-22T04:37:42;100569.25;;;9.61;100.00
29909;BME280;36247;51.952;6.146;2023-03-22T04:40:12;100575.44;;;9.60;100.00
29909;BME280;36247;51.952;6.146;2023-03-22T04:42:49;100564.75;;;9.52;100.00
29909;BME280;36247;51.952;6.146;2023-03-22T04:45:24;100564.78;;;9.54;100.00
29909;BME280;36247;51.952;6.146;2023-03-22T04:47:57;100566.34;;;9.41;100.00
29909;BME280;36247;51.952;6.146;2023-03-22T04:50:23;100569.78;;;9.35;100.00
29909;BME280;36247;51.952;6.146;2023-03-22T04:52:54;100577.69;;;9.34;100.00
29909;BME280;36247;51.952;6.146;2023-03-22T04:55:20;100570.69;;;9.34;100.00
29909;BME280;36247;51.952;6.146;2023-03-22T04:57:45;100558.34;;;9.35;100.00
29909;BME280;36247;51.952;6.146;2023-03-22T05:00:11;100557.38;;;9.30;100.00
29909;BME280;36247;51.952;6.146;2023-03-22T05:02:37;100560.00;;;9.28;100.00
29909;BME280;36247;51.952;6.146;2023-03-22T05:05:08;100556.50;;;9.29;100.00
29909;BME280;36247;51.952;6.146;2023-03-22T05:07:37;100555.63;;;9.30;100.00
29909;BME280;36247;51.952;6.146;2023-03-22T05:10:04;100556.34;;;9.20;100.00
29909;BME280;36247;51.952;6.146;2023-03-22T05:12:30;100547.59;;;9.23;100.00
29909;BME280;36247;51.952;6.146;2023-03-22T05:15:00;100547.50;;;9.18;100.00
29909;BME280;36247;51.952;6.146;2023-03-22T05:17:32;100558.22;;;9.27;100.00
29909;BME280;36247;51.952;6.146;2023-03-22T05:19:59;100551.13;;;9.25;100.00
29909;BME280;36247;51.952;6.146;2023-03-22T05:22:32;100546.72;;;9.24;100.00
29909;BME280;36247;51.952;6.146;2023-03-22T05:24:59;100551.09;;;9.22;100.00
29909;BME280;36247;51.952;6.146;2023-03-22T05:27:25;100547.59;;;9.23;100.00
29909;BME280;36247;51.952;6.146;2023-03-22T05:30:01;100549.41;;;9.27;100.00
29909;BME280;36247;51.952;6.146;2023-03-22T05:32:46;100545.84;;;9.25;100.00
29909;BME280;36247;51.952;6.146;2023-03-22T05:35:14;100546.81;;;9.31;100.00
29909;BME280;36247;51.952;6.146;2023-03-22T05:37:44;100545.91;;;9.29;100.00
29909;BME280;36247;51.952;6.146;2023-03-22T05:40:12;100537.97;;;9.29;100.00
29909;BME280;36247;51.952;6.146;2023-03-22T05:42:43;100535.34;;;9.31;100.00
29909;BME280;36247;51.952;6.146;2023-03-22T05:45:22;100533.63;;;9.33;100.00
29909;BME280;36247;51.952;6.146;2023-03-22T05:47:58;100534.53;;;9.33;100.00
29909;BME280;36247;51.952;6.146;2023-03-22T05:50:25;100539.81;;;9.33;100.00
29909;BME280;36247;51.952;6.146;2023-03-22T05:52:51;100534.53;;;9.33;100.00
29909;BME280;36247;51.952;6.146;2023-03-22T05:55:22;100538.97;;;9.34;100.00
29909;BME280;36247;51.952;6.146;2023-03-22T05:57:53;100532.66;;;9.26;100.00
29909;BME280;36247;51.952;6.146;2023-03-22T06:00:20;100530.06;;;9.29;100.00
29909;BME280;36247;51.952;6.146;2023-03-22T06:03:09;100537.16;;;9.33;100.00
29909;BME280;36247;51.952;6.146;2023-03-22T06:05:40;100531.84;;;9.30;100.00
29909;BME280;36247;51.952;6.146;2023-03-22T06:08:06;100523.88;;;9.27;100.00
29909;BME280;36247;51.952;6.146;2023-03-22T06:10:32;100532.78;;;9.35;100.00
29909;BME280;36247;51.952;6.146;2023-03-22T06:12:57;100523.13;;;9.36;100.00
29909;BME280;36247;51.952;6.146;2023-03-22T06:15:27;100540.69;;;9.34;100.00
29909;BME280;36247;51.952;6.146;2023-03-22T06:17:59;100534.59;;;9.40;100.00
29909;BME280;36247;51.952;6.146;2023-03-22T06:20:28;100535.47;;;9.40;100.00
29909;BME280;36247;51.952;6.146;2023-03-22T06:22:59;100534.69;;;9.46;100.00
29909;BME280;36247;51.952;6.146;2023-03-22T06:25:25;100543.38;;;9.37;100.00
29909;BME280;36247;51.952;6.146;2023-03-22T06:27:51;100530.13;;;9.35;100.00
29909;BME280;36247;51.952;6.146;2023-03-22T06:30:17;100529.28;;;9.37;100.00
29909;BME280;36247;51.952;6.146;2023-03-22T06:33:06;100541.63;;;9.38;100.00
29909;BME280;36247;51.952;6.146;2023-03-22T06:35:35;100543.44;;;9.42;100.00
29909;BME280;36247;51.952;6.146;2023-03-22T06:38:02;100527.56;;;9.42;100.00
29909;BME280;36247;51.952;6.146;2023-03-22T06:40:27;100527.53;;;9.39;100.00
29909;BME280;36247;51.952;6.146;2023-03-22T06:42:53;100534.59;;;9.40;100.00
29909;BME280;36247;51.952;6.146;2023-03-22T06:45:21;100538.19;;;9.45;100.00
29909;BME280;36247;51.952;6.146;2023-03-22T06:47:47;100534.66;;;9.43;100.00
29909;BME280;36247;51.952;6.146;2023-03-22T06:50:28;100531.16;;;9.45;100.00
29909;BME280;36247;51.952;6.146;2023-03-22T06:53:04;100523.28;;;9.48;100.00
29909;BME280;36247;51.952;6.146;2023-03-22T06:55:30;100525.97;;;9.53;100.00
29909;BME280;36247;51.952;6.146;2023-03-22T06:58:04;100522.53;;;9.60;100.00
29909;BME280;36247;51.952;6.146;2023-03-22T07:00:30;100522.63;;;9.66;100.00
29909;BME280;36247;51.952;6.146;2023-03-22T07:02:57;100525.44;;;9.83;100.00
29909;BME280;36247;51.952;6.146;2023-03-22T07:05:34;100524.78;;;10.01;100.00
29909;BME280;36247;51.952;6.146;2023-03-22T07:08:00;100514.28;;;10.09;100.00
29909;BME280;36247;51.952;6.146;2023-03-22T07:10:26;100516.13;;;10.18;100.00
29909;BME280;36247;51.952;6.146;2023-03-22T07:12:51;100522.31;;;10.17;100.00
29909;BME280;36247;51.952;6.146;2023-03-22T07:15:18;100514.44;;;10.23;100.00
29909;BME280;36247;51.952;6.146;2023-03-22T07:17:55;100518.75;;;10.18;100.00
29909;BME280;36247;51.952;6.146;2023-03-22T07:20:21;100525.94;;;10.28;100.00
29909;BME280;36247;51.952;6.146;2023-03-22T07:22:50;100520.72;;;10.34;100.00
29909;BME280;36247;51.952;6.146;2023-03-22T07:25:18;100522.56;;;10.41;100.00
29909;BME280;36247;51.952;6.146;2023-03-22T07:27:47;100526.19;;;10.48;100.00
29909;BME280;36247;51.952;6.146;2023-03-22T07:30:13;100512.16;;;10.60;100.00
29909;BME280;36247;51.952;6.146;2023-03-22T07:32:43;100522.78;;;10.63;100.00
29909;BME280;36247;51.952;6.146;2023-03-22T07:35:12;100522.78;;;10.65;100.00
29909;BME280;36247;51.952;6.146;2023-03-22T07:37:38;100519.25;;;10.67;100.00
29909;BME280;36247;51.952;6.146;2023-03-22T07:40:10;100528.09;;;10.68;100.00
29909;BME280;36247;51.952;6.146;2023-03-22T07:42:36;100521.06;;;10.73;100.00
29909;BME280;36247;51.952;6.146;2023-03-22T07:45:15;100522.88;;;10.79;100.00
29909;BME280;36247;51.952;6.146;2023-03-22T07:47:41;100530.78;;;10.72;100.00
29909;BME280;36247;51.952;6.146;2023-03-22T07:50:27;100524.50;;;10.59;100.00
29909;BME280;36247;51.952;6.146;2023-03-22T07:52:55;100524.44;;;10.52;100.00
29909;BME280;36247;51.952;6.146;2023-03-22T07:55:20;100523.56;;;10.53;100.00
29909;BME280;36247;51.952;6.146;2023-03-22T07:57:45;100521.78;;;10.50;100.00
29909;BME280;36247;51.952;6.146;2023-03-22T08:00:12;100525.28;;;10.51;100.00
29909;BME280;36247;51.952;6.146;2023-03-22T08:03:03;100521.78;;;10.52;100.00
29909;BME280;36247;51.952;6.146;2023-03-22T08:05:51;100526.31;;;10.64;100.00
29909;BME280;36247;51.952;6.146;2023-03-22T08:08:17;100524.56;;;10.69;100.00
29909;BME280;36247;51.952;6.146;2023-03-22T08:10:47;100532.69;;;10.89;100.00
29909;BME280;36247;51.952;6.146;2023-03-22T08:13:13;100525.59;;;10.85;100.00
29909;BME280;36247;51.952;6.146;2023-03-22T08:15:38;100526.41;;;10.79;100.00
29909;BME280;36247;51.952;6.146;2023-03-22T08:18:04;100522.09;;;10.89;100.00
29909;BME280;36247;51.952;6.146;2023-03-22T08:20:39;100523.84;;;10.87;100.00
29909;BME280;36247;51.952;6.146;2023-03-22T08:23:10;100532.75;;;10.98;100.00
29909;BME280;36247;51.952;6.146;2023-03-22T08:25:58;100517.81;;;11.11;100.00
29909;BME280;36247;51.952;6.146;2023-03-22T08:28:24;100531.06;;;11.09;100.00
29909;BME280;36247;51.952;6.146;2023-03-22T08:30:50;100524.81;;;11.01;100.00
29909;BME280;36247;51.952;6.146;2023-03-22T08:33:17;100513.31;;;10.94;100.00
29909;BME280;36247;51.952;6.146;2023-03-22T08:35:45;100526.59;;;11.02;100.00
29909;BME280;36247;51.952;6.146;2023-03-22T08:38:11;100539.03;;;11.13;100.00
29909;BME280;36247;51.952;6.146;2023-03-22T08:40:47;100522.28;;;11.18;100.00
29909;BME280;36247;51.952;6.146;2023-03-22T08:43:13;100536.50;;;11.33;100.00
29909;BME280;36247;51.952;6.146;2023-03-22T08:45:38;100518.91;;;11.49;100.00
29909;BME280;36247;51.952;6.146;2023-03-22T08:48:09;100517.97;;;11.42;100.00
29909;BME280;36247;51.952;6.146;2023-03-22T08:50:59;100522.41;;;11.41;100.00
29909;BME280;36247;51.952;6.146;2023-03-22T08:53:34;100523.38;;;11.53;100.00
29909;BME280;36247;51.952;6.146;2023-03-22T08:56:20;100521.59;;;11.55;100.00
29909;BME280;36247;51.952;6.146;2023-03-22T08:58:59;100505.66;;;11.49;100.00
29909;BME280;36247;51.952;6.146;2023-03-22T09:01:35;100512.81;;;11.67;100.00
29909;BME280;36247;51.952;6.146;2023-03-22T09:04:03;100512.78;;;11.63;100.00
29909;BME280;36247;51.952;6.146;2023-03-22T09:06:29;100505.78;;;11.76;100.00
29909;BME280;36247;51.952;6.146;2023-03-22T09:08:55;100522.56;;;11.69;100.00
29909;BME280;36247;51.952;6.146;2023-03-22T09:11:22;100511.13;;;11.87;100.00
29909;BME280;36247;51.952;6.146;2023-03-22T09:13:48;100497.94;;;12.13;100.00
29909;BME280;36247;51.952;6.146;2023-03-22T09:16:15;100501.50;;;12.17;100.00
29909;BME280;36247;51.952;6.146;2023-03-22T09:18:43;100505.88;;;12.04;100.00
29909;BME280;36247;51.952;6.146;2023-03-22T09:21:14;100493.47;;;11.98;100.00
29909;BME280;36247;51.952;6.146;2023-03-22T09:23:53;100499.72;;;12.16;100.00
29909;BME280;36247;51.952;6.146;2023-03-22T09:26:24;100497.97;;;12.20;100.00
29909;BME280;36247;51.952;6.146;2023-03-22T09:28:51;100501.50;;;12.22;100.00
29909;BME280;36247;51.952;6.146;2023-03-22T09:31:16;100507.69;;;12.13;100.00
29909;BME280;36247;51.952;6.146;2023-03-22T09:33:42;100490.00;;;12.23;100.00
29909;BME280;36247;51.952;6.146;2023-03-22T09:36:09;100493.53;;;12.35;100.00
29909;BME280;36247;51.952;6.146;2023-03-22T09:38:37;100520.94;;;12.11;100.00
29909;BME280;36247;51.952;6.146;2023-03-22T09:41:29;100492.66;;;12.35;100.00
29909;BME280;36247;51.952;6.146;2023-03-22T09:44:02;100496.19;;;12.40;100.00
29909;BME280;36247;51.952;6.146;2023-03-22T09:46:32;100489.09;;;12.34;100.00
29909;BME280;36247;51.952;6.146;2023-03-22T09:49:02;100504.16;;;12.26;100.00
29909;BME280;36247;51.952;6.146;2023-03-22T09:51:45;100498.84;;;12.32;100.00
29909;BME280;36247;51.952;6.146;2023-03-22T09:54:29;100501.50;;;12.25;100.00
29909;BME280;36247;51.952;6.146;2023-03-22T09:57:04;100499.72;;;12.14;100.00
29909;BME280;36247;51.952;6.146;2023-03-22T10:10:23;100500.50;;;11.90;100.00
29909;BME280;36247;51.952;6.146;2023-03-22T10:13:05;100489.88;;;11.86;100.00
29909;BME280;36247;51.952;6.146;2023-03-22T10:15:46;100486.31;;;11.79;100.00
29909;BME280;36247;51.952;6.146;2023-03-22T10:18:37;100488.06;;;11.75;100.00
29909;BME280;36247;51.952;6.146;2023-03-22T10:21:04;100489.91;;;11.90;100.00
29909;BME280;36247;51.952;6.146;2023-03-22T10:26:40;100475.69;;;11.79;100.00
29909;BME280;36247;51.952;6.146;2023-03-22T10:31:48;100508.47;;;11.86;100.00
29909;BME280;36247;51.952;6.146;2023-03-22T10:34:25;100488.09;;;11.86;100.00
29909;BME280;36247;51.952;6.146;2023-03-22T10:37:00;100498.72;;;11.83;100.00
29909;BME280;36247;51.952;6.146;2023-03-22T10:39:33;100484.56;;;11.82;100.00
29909;BME280;36247;51.952;6.146;2023-03-22T10:42:03;100497.84;;;11.86;100.00
29909;BME280;36247;51.952;6.146;2023-03-22T10:44:32;100487.22;;;11.82;100.00
29909;BME280;36247;51.952;6.146;2023-03-22T10:47:03;100503.97;;;11.68;100.00
29909;BME280;36247;51.952;6.146;2023-03-22T10:49:38;100503.97;;;11.69;100.00
29909;BME280;36247;51.952;6.146;2023-03-22T10:52:22;100496.00;;;11.61;100.00
29909;BME280;36247;51.952;6.146;2023-03-22T10:54:54;100506.53;;;11.51;100.00
29909;BME280;36247;51.952;6.146;2023-03-22T10:57:22;100502.13;;;11.48;100.00
29909;BME280;36247;51.952;6.146;2023-03-22T10:59:49;100507.38;;;11.40;100.00
29909;BME280;36247;51.952;6.146;2023-03-22T11:02:27;100509.09;;;11.26;100.00
29909;BME280;36247;51.952;6.146;2023-03-22T11:04:59;100517.03;;;11.24;100.00
29909;BME280;36247;51.952;6.146;2023-03-22T11:07:28;100517.88;;;11.20;100.00
29909;BME280;36247;51.952;6.146;2023-03-22T11:10:20;100519.66;;;11.18;100.00
29909;BME280;36247;51.952;6.146;2023-03-22T11:13:12;100526.72;;;11.21;100.00
29909;BME280;36247;51.952;6.146;2023-03-22T11:16:00;100517.88;;;11.19;100.00
29909;BME280;36247;51.952;6.146;2023-03-22T11:18:31;100520.53;;;11.19;100.00
29909;BME280;36247;51.952;6.146;2023-03-22T11:21:06;100519.63;;;11.15;100.00
29909;BME280;36247;51.952;6.146;2023-03-22T11:23:34;100517.00;;;11.17;100.00
29909;BME280;36247;51.952;6.146;2023-03-22T11:26:13;100509.94;;;11.25;100.00
29909;BME280;36247;51.952;6.146;2023-03-22T11:28:46;100516.09;;;11.21;100.00
29909;BME280;36247;51.952;6.146;2023-03-22T11:31:15;100521.53;;;11.39;100.00
29909;BME280;36247;51.952;6.146;2023-03-22T11:33:54;100512.72;;;11.45;100.00
29909;BME280;36247;51.952;6.146;2023-03-22T11:36:20;100510.00;;;11.37;100.00
29909;BME280;36247;51.952;6.146;2023-03-22T11:38:46;100515.28;;;11.31;100.00
29909;BME280;36247;51.952;6.146;2023-03-22T11:41:20;100514.47;;;11.41;100.00
29909;BME280;36247;51.952;6.146;2023-03-22T11:43:49;100517.91;;;11.26;100.00
29909;BME280;36247;51.952;6.146;2023-03-22T11:46:17;100520.50;;;11.14;100.00
29909;BME280;36247;51.952;6.146;2023-03-22T11:48:47;100508.13;;;11.16;100.00
29909;BME280;36247;51.952;6.146;2023-03-22T11:51:17;100502.97;;;11.42;100.00
29909;BME280;36247;51.952;6.146;2023-03-22T11:53:54;100500.19;;;11.22;100.00
29909;BME280;36247;51.952;6.146;2023-03-22T11:56:27;100505.44;;;11.11;100.00
29909;BME280;36247;51.952;6.146;2023-03-22T11:59:02;100505.47;;;11.18;100.00
29909;BME280;36247;51.952;6.146;2023-03-22T12:01:33;100509.13;;;11.34;100.00
29909;BME280;36247;51.952;6.146;2023-03-22T12:04:03;100501.09;;;11.20;100.00
29909;BME280;36247;51.952;6.146;2023-03-22T12:06:36;100502.88;;;11.24;100.00
29909;BME280;36247;51.952;6.146;2023-03-22T12:11:58;100507.31;;;11.31;100.00
29909;BME280;36247;51.952;6.146;2023-03-22T12:14:53;100491.44;;;11.34;100.00
29909;BME280;36247;51.952;6.146;2023-03-22T12:17:41;100486.22;;;11.51;100.00
29909;BME280;36247;51.952;6.146;2023-03-22T12:22:52;100490.63;;;11.51;100.00
29909;BME280;36247;51.952;6.146;2023-03-22T12:25:30;100480.03;;;11.58;100.00
29909;BME280;36247;51.952;6.146;2023-03-22T12:27:59;100486.25;;;11.60;100.00
29909;BME280;36247;51.952;6.146;2023-03-22T12:30:30;100476.50;;;11.53;100.00
29909;BME280;36247;51.952;6.146;2023-03-22T12:33:05;100488.88;;;11.53;100.00
29909;BME280;36247;51.952;6.146;2023-03-22T12:35:35;100481.78;;;11.47;100.00
29909;BME280;36247;51.952;6.146;2023-03-22T12:38:17;100478.28;;;11.53;100.00
29909;BME280;36247;51.952;6.146;2023-03-22T12:40:47;100484.44;;;11.52;100.00
29909;BME280;36247;51.952;6.146;2023-03-22T12:43:18;100504.72;;;11.43;100.00
29909;BME280;36247;51.952;6.146;2023-03-22T12:45:54;100488.78;;;11.37;100.00
29909;BME280;36247;51.952;6.146;2023-03-22T12:48:43;100484.41;;;11.42;100.00
29909;BME280;36247;51.952;6.146;2023-03-22T12:51:12;100480.00;;;11.44;100.00
29909;BME280;36247;51.952;6.146;2023-03-22T12:53:44;100487.03;;;11.36;100.00
29909;BME280;36247;51.952;6.146;2023-03-22T12:56:12;100494.09;;;11.40;100.00
29909;BME280;36247;51.952;6.146;2023-03-22T12:58:39;100495.00;;;11.39;100.00
29909;BME280;36247;51.952;6.146;2023-03-22T13:01:17;100495.88;;;11.41;100.00
29909;BME280;36247;51.952;6.146;2023-03-22T13:03:47;100495.84;;;11.34;100.00
29909;BME280;36247;51.952;6.146;2023-03-22T13:09:33;100489.69;;;11.36;100.00
29909;BME280;36247;51.952;6.146;2023-03-22T13:27:56;100487.94;;;11.41;100.00
29909;BME280;36247;51.952;6.146;2023-03-22T13:30:34;100478.19;;;11.43;100.00
29909;BME280;36247;51.952;6.146;2023-03-22T13:35:53;100478.28;;;11.53;100.00
29909;BME280;36247;51.952;6.146;2023-03-22T13:38:37;100490.63;;;11.51;100.00
29909;BME280;36247;51.952;6.146;2023-03-22T13:59:12;100476.50;;;11.58;100.00
29909;BME280;36247;51.952;6.146;2023-03-22T14:04:42;100475.66;;;11.63;100.00
29909;BME280;36247;51.952;6.146;2023-03-22T14:07:46;100494.19;;;11.57;100.00
29909;BME280;36247;51.952;6.146;2023-03-22T14:10:19;100488.00;;;11.58;100.00
29909;BME280;36247;51.952;6.146;2023-03-22T14:12:58;100474.75;;;11.60;100.00
29909;BME280;36247;51.952;6.146;2023-03-22T14:15:34;100479.16;;;11.61;100.00
29909;BME280;36247;51.952;6.146;2023-03-22T14:18:06;100475.63;;;11.59;100.00
29909;BME280;36247;51.952;6.146;2023-03-22T14:20:36;100488.03;;;11.60;100.00
29909;BME280;36247;51.952;6.146;2023-03-22T14:23:07;100489.78;;;11.62;100.00
29909;BME280;36247;51.952;6.146;2023-03-22T14:25:35;100485.34;;;11.57;100.00
29909;BME280;36247;51.952;6.146;2023-03-22T14:28:01;100472.13;;;11.61;100.00
29909;BME280;36247;51.952;6.146;2023-03-22T14:33:00;100476.50;;;11.52;100.00
29909;BME280;36247;51.952;6.146;2023-03-22T14:35:41;100470.34;;;11.65;100.00
29909;BME280;36247;51.952;6.146;2023-03-22T14:38:17;100471.16;;;11.49;100.00
29909;BME280;36247;51.952;6.146;2023-03-22T14:40:43;100468.50;;;11.45;100.00
29909;BME280;36247;51.952;6.146;2023-03-22T14:45:47;100477.38;;;11.55;100.00
29909;BME280;36247;51.952;6.146;2023-03-22T14:48:16;100474.72;;;11.54;100.00